Time;durP1;ratioP1;P1;durP2;ratioP2;P2;SDS_P1;SDS_P2;PMS_P1;PMS_P2;Temp;Humidity;BMP_temperature;BMP_pressure;BME280_temperature;BME280_humidity;BME280_pressure;Samples;Min_cycle;Max_cycle;Signal;HPM_P1;HPM_P2
2023/07/05 00:02:12;;;;;;;3.35;1.65;;;18.00;66.60;;;;;;5030065;28;20105;-76
2023/07/05 00:04:37;;;;;;;1.98;1.33;;;18.00;66.70;;;;;;5029490;28;20117;-76
2023/07/05 00:07:03;;;;;;;1.70;1.30;;;18.10;66.80;;;;;;5029706;28;20045;-75
2023/07/05 00:09:29;;;;;;;4.03;1.58;;;18.00;66.50;;;;;;5029652;28;20097;-75
2023/07/05 00:11:56;;;;;;;1.42;1.33;;;18.00;66.70;;;;;;5029923;28;20028;-75
2023/07/05 00:14:22;;;;;;;2.30;1.42;;;18.00;66.60;;;;;;5029965;28;20022;-75
2023/07/05 00:16:48;;;;;;;2.20;1.40;;;18.00;66.60;;;;;;5029857;28;20106;-76
2023/07/05 00:19:13;;;;;;;1.77;1.50;;;18.00;66.40;;;;;;5029661;28;20100;-75
2023/07/05 00:21:39;;;;;;;2.03;1.40;;;18.00;66.40;;;;;;5029774;28;20082;-76
2023/07/05 00:24:05;;;;;;;3.22;1.85;;;18.10;66.60;;;;;;5029790;28;20048;-75
2023/07/05 00:26:30;;;;;;;3.42;1.50;;;18.00;66.40;;;;;;5029542;28;20465;-75
2023/07/05 00:28:56;;;;;;;3.78;1.67;;;18.00;66.50;;;;;;5029900;28;20040;-75
2023/07/05 00:31:21;;;;;;;3.17;1.30;;;18.00;66.50;;;;;;5029854;28;20026;-75
2023/07/05 00:33:47;;;;;;;2.10;1.25;;;18.10;66.50;;;;;;5029763;28;20018;-75
2023/07/05 00:36:13;;;;;;;1.95;1.45;;;18.20;66.40;;;;;;5030033;28;20097;-75
2023/07/05 00:38:39;;;;;;;2.58;1.35;;;18.20;66.10;;;;;;5029679;28;20508;-74
2023/07/05 00:41:04;;;;;;;2.08;1.48;;;18.20;65.80;;;;;;5029287;28;20390;-74
2023/07/05 00:43:30;;;;;;;1.60;1.50;;;18.20;65.80;;;;;;5029668;28;20362;-74
2023/07/05 00:46:16;;;;;;;1.55;1.40;;;18.30;65.70;;;;;;5029489;28;20036;-74
2023/07/05 00:48:43;;;;;;;;;;;18.40;65.50;;;;;;5030030;28;20061;-74
2023/07/05 00:51:24;;;;;;;1.90;1.40;;;18.40;65.40;;;;;;5029509;28;19909;-75
2023/07/05 00:53:54;;;;;;;2.17;1.42;;;18.40;65.30;;;;;;5029549;28;20529;-74
2023/07/05 00:56:33;;;;;;;1.90;1.42;;;18.50;65.20;;;;;;5029446;28;20490;-75
2023/07/05 00:58:59;;;;;;;1.50;1.08;;;18.50;65.20;;;;;;5032986;28;20108;-75
2023/07/05 01:01:25;;;;;;;1.30;1.10;;;18.60;65.00;;;;;;5032900;28;20051;-75
2023/07/05 01:03:55;;;;;;;2.42;1.70;;;18.50;65.00;;;;;;5032722;28;20037;-75
2023/07/05 01:06:23;;;;;;;1.48;1.30;;;18.60;64.80;;;;;;5031649;28;20049;-75
2023/07/05 01:08:50;;;;;;;2.85;1.70;;;18.60;64.90;;;;;;5032698;28;20034;-75
2023/07/05 01:11:29;;;;;;;2.65;1.50;;;18.60;64.70;;;;;;5032728;28;20106;-75
2023/07/05 01:14:02;;;;;;;2.33;1.42;;;18.60;64.60;;;;;;5032730;28;20045;-75
2023/07/05 01:16:45;;;;;;;1.50;1.40;;;18.50;64.80;;;;;;5032580;28;20021;-75
2023/07/05 01:19:27;;;;;;;2.40;1.45;;;18.30;64.80;;;;;;5032659;28;20075;-75
2023/07/05 01:22:00;;;;;;;2.05;1.20;;;18.30;64.90;;;;;;5032813;28;20025;-75
2023/07/05 01:24:57;;;;;;;3.00;1.40;;;18.30;64.10;;;;;;5032463;27;20040;-75
2023/07/05 01:27:49;;;;;;;1.58;1.10;;;18.40;63.10;;;;;;5032545;28;20447;-75
2023/07/05 01:30:33;;;;;;;2.83;1.33;;;18.60;62.90;;;;;;5032534;28;20032;-76
2023/07/05 01:33:37;;;;;;;3.30;1.73;;;18.80;62.00;;;;;;5032647;28;20470;-76
2023/07/05 01:36:03;;;;;;;1.42;1.27;;;18.90;60.90;;;;;;5065764;28;20039;-76
2023/07/05 01:38:29;;;;;;;2.97;1.35;;;19.00;60.40;;;;;;5031994;28;20037;-75
2023/07/05 01:40:58;;;;;;;2.42;1.60;;;19.10;60.00;;;;;;5032065;28;20029;-76
2023/07/05 01:43:25;;;;;;;1.63;1.40;;;19.20;60.20;;;;;;5032138;28;20030;-76
2023/07/05 01:46:12;;;;;;;2.03;1.60;;;19.20;60.70;;;;;;5032277;28;20057;-75
2023/07/05 01:49:13;;;;;;;4.95;1.67;;;19.20;61.00;;;;;;5032101;28;20048;-76
2023/07/05 01:51:50;;;;;;;3.90;1.80;;;19.10;61.50;;;;;;5032182;28;20094;-77
2023/07/05 01:54:32;;;;;;;2.60;1.55;;;19.10;61.80;;;;;;5031969;28;20496;-76
2023/07/05 01:57:06;;;;;;;4.05;1.42;;;19.00;62.00;;;;;;5031969;28;20022;-76
2023/07/05 02:00:02;;;;;;;3.22;1.85;;;19.00;62.00;;;;;;5032081;28;20017;-77
2023/07/05 02:02:36;;;;;;;2.85;1.50;;;19.00;62.10;;;;;;5031723;28;20481;-76
2023/07/05 02:05:04;;;;;;;1.80;1.40;;;19.00;62.10;;;;;;5031930;28;20450;-75
2023/07/05 02:07:31;;;;;;;3.28;1.88;;;19.00;63.10;;;;;;5031772;28;20017;-76
2023/07/05 02:09:57;;;;;;;2.58;1.40;;;18.90;62.80;;;;;;5031305;28;20498;-75
2023/07/05 02:12:24;;;;;;;3.97;1.80;;;18.90;63.00;;;;;;5031605;28;20086;-76
2023/07/05 02:14:49;;;;;;;4.45;1.70;;;18.80;64.60;;;;;;5031752;28;20026;-76
2023/07/05 02:17:15;;;;;;;5.32;1.95;;;18.70;66.70;;;;;;5031789;28;20030;-76
2023/07/05 02:19:41;;;;;;;3.28;1.80;;;18.70;67.50;;;;;;5031640;28;20029;-76
2023/07/05 02:22:07;;;;;;;2.33;1.58;;;18.70;67.80;;;;;;5031612;27;20104;-76
2023/07/05 02:24:32;;;;;;;4.07;1.88;;;18.60;68.70;;;;;;5031539;28;20034;-76
2023/07/05 02:26:59;;;;;;;3.10;1.63;;;18.60;68.10;;;;;;5031542;28;20070;-76
2023/07/05 02:29:25;;;;;;;5.93;1.88;;;18.60;69.20;;;;;;5031407;28;20036;-77
2023/07/05 02:31:51;;;;;;;10.15;2.72;;;18.70;70.60;;;;;;5031416;28;20392;-77
2023/07/05 02:34:16;;;;;;;6.90;2.47;;;18.50;74.40;;;;;;5031437;28;20440;-74
2023/07/05 02:36:42;;;;;;;3.78;2.25;;;18.30;75.70;;;;;;5031448;28;20078;-76
2023/07/05 02:39:07;;;;;;;4.28;2.10;;;17.90;77.40;;;;;;5031334;28;20017;-73
2023/07/05 02:41:33;;;;;;;3.53;2.20;;;17.60;79.00;;;;;;5031257;28;20069;-73
2023/07/05 02:43:59;;;;;;;4.05;2.00;;;17.40;81.00;;;;;;5031311;28;20038;-74
2023/07/05 02:46:26;;;;;;;2.13;1.60;;;17.30;81.10;;;;;;5029997;28;20033;-73
2023/07/05 02:48:56;;;;;;;2.67;1.83;;;17.20;81.20;;;;;;5031266;28;20032;-74
2023/07/05 02:51:22;;;;;;;1.88;1.45;;;17.10;82.50;;;;;;5031180;28;20021;-75
2023/07/05 02:53:48;;;;;;;3.70;1.60;;;17.00;82.00;;;;;;5031555;28;20496;-74
2023/07/05 02:56:14;;;;;;;3.20;1.65;;;17.00;83.40;;;;;;5031185;28;20026;-74
2023/07/05 02:58:40;;;;;;;2.72;1.60;;;16.90;82.40;;;;;;5031001;28;20129;-74
2023/07/05 03:01:06;;;;;;;3.17;1.63;;;16.90;83.00;;;;;;5031137;28;20056;-74
2023/07/05 03:03:31;;;;;;;3.20;1.42;;;17.00;82.80;;;;;;5030808;28;20037;-74
2023/07/05 03:05:58;;;;;;;3.95;1.40;;;17.10;83.20;;;;;;5030836;28;20021;-74
2023/07/05 03:08:25;;;;;;;2.28;1.38;;;17.10;82.20;;;;;;5030915;28;20021;-75
2023/07/05 03:11:00;;;;;;;2.38;1.23;;;17.10;82.80;;;;;;5030886;28;20018;-74
2023/07/05 03:13:31;;;;;;;1.63;1.20;;;17.10;82.60;;;;;;5030664;28;20029;-74
2023/07/05 03:15:57;;;;;;;1.42;1.30;;;17.10;82.80;;;;;;5030860;28;20505;-74
2023/07/05 03:18:23;;;;;;;2.97;1.52;;;17.00;84.00;;;;;;5030775;28;20026;-74
2023/07/05 03:20:49;;;;;;;2.70;1.40;;;17.10;83.90;;;;;;5029087;28;20090;-74
2023/07/05 03:23:16;;;;;;;3.47;1.40;;;17.10;84.40;;;;;;5032752;28;20431;-75
2023/07/05 03:25:56;;;;;;;2.72;1.75;;;17.10;84.80;;;;;;5030932;27;20029;-77
2023/07/05 03:28:23;;;;;;;2.65;1.40;;;17.10;84.90;;;;;;5030513;28;20024;-75
2023/07/05 03:30:59;;;;;;;3.13;1.30;;;17.10;85.10;;;;;;5030520;28;20030;-74
2023/07/05 03:33:25;;;;;;;3.38;1.42;;;17.10;84.80;;;;;;5030475;28;20028;-75
2023/07/05 03:35:55;;;;;;;3.05;1.52;;;17.10;83.00;;;;;;5030477;28;20373;-75
2023/07/05 03:38:22;;;;;;;2.50;1.45;;;17.00;83.00;;;;;;5030302;28;20382;-75
2023/07/05 03:40:56;;;;;;;4.32;1.48;;;17.10;83.20;;;;;;5030182;28;20102;-75
2023/07/05 03:43:21;;;;;;;2.42;1.40;;;17.10;83.90;;;;;;5030134;28;20358;-75
2023/07/05 03:45:47;;;;;;;1.90;1.65;;;17.10;82.20;;;;;;5030290;28;20105;-76
2023/07/05 03:48:12;;;;;;;3.67;2.00;;;17.10;82.20;;;;;;5030297;28;20102;-75
2023/07/05 03:50:38;;;;;;;3.03;1.85;;;17.10;81.70;;;;;;5030165;28;20097;-76
2023/07/05 03:53:03;;;;;;;2.15;1.60;;;17.10;82.00;;;;;;5030195;28;20029;-75
2023/07/05 03:55:29;;;;;;;2.80;1.98;;;17.10;82.10;;;;;;5030318;28;20497;-75
2023/07/05 03:57:56;;;;;;;2.72;1.83;;;17.10;80.70;;;;;;5030130;28;20640;-76
2023/07/05 04:00:21;;;;;;;1.70;1.60;;;17.10;80.80;;;;;;5028858;28;20378;-75
2023/07/05 04:02:47;;;;;;;1.90;1.80;;;17.10;80.40;;;;;;5028610;28;20025;-75
2023/07/05 04:05:12;;;;;;;4.00;1.90;;;17.10;81.40;;;;;;5029886;28;20030;-75
2023/07/05 04:07:38;;;;;;;3.75;2.15;;;17.10;81.10;;;;;;5029994;28;20022;-75
2023/07/05 04:10:04;;;;;;;3.33;2.47;;;17.20;80.90;;;;;;5030154;28;20033;-74
2023/07/05 04:12:29;;;;;;;2.38;1.92;;;17.20;79.80;;;;;;5029955;28;20030;-75
2023/07/05 04:14:55;;;;;;;2.30;1.95;;;17.20;79.70;;;;;;5030038;28;20385;-75
2023/07/05 04:17:21;;;;;;;3.22;2.30;;;17.20;79.80;;;;;;5030033;28;20029;-75
2023/07/05 04:19:46;;;;;;;5.88;2.40;;;17.20;80.20;;;;;;5029887;28;20158;-75
2023/07/05 04:22:12;;;;;;;4.07;2.38;;;17.20;80.00;;;;;;5029668;28;20437;-75
2023/07/05 04:24:37;;;;;;;2.40;2.10;;;17.20;79.20;;;;;;5029781;28;20061;-75
2023/07/05 04:27:03;;;;;;;3.10;2.28;;;17.20;79.70;;;;;;5029893;28;20025;-74
2023/07/05 04:29:28;;;;;;;2.42;2.00;;;17.20;79.80;;;;;;5029917;28;20025;-74
2023/07/05 04:31:54;;;;;;;4.68;2.50;;;17.30;79.40;;;;;;5030637;28;20056;-74
2023/07/05 04:34:19;;;;;;;3.00;2.15;;;17.30;79.20;;;;;;5033303;28;20033;-74
2023/07/05 04:36:45;;;;;;;2.35;2.00;;;17.30;79.60;;;;;;5033232;28;20087;-75
2023/07/05 04:39:10;;;;;;;4.35;2.40;;;17.30;81.00;;;;;;5033060;28;20030;-76
2023/07/05 04:41:36;;;;;;;5.65;2.45;;;17.40;80.20;;;;;;5032897;28;20050;-76
2023/07/05 04:44:04;;;;;;;3.35;2.30;;;17.30;81.00;;;;;;5033041;28;20037;-76
2023/07/05 04:46:30;;;;;;;2.25;2.05;;;17.30;80.90;;;;;;5033053;28;20037;-76
2023/07/05 04:48:55;;;;;;;2.83;2.42;;;17.30;80.00;;;;;;5033071;28;20018;-75
2023/07/05 04:51:21;;;;;;;3.75;2.58;;;17.30;80.20;;;;;;5033083;28;20029;-75
2023/07/05 04:53:47;;;;;;;2.72;2.53;;;17.30;79.50;;;;;;5032869;28;20022;-75
2023/07/05 04:56:14;;;;;;;3.22;2.50;;;17.30;79.10;;;;;;5032996;28;20029;-77
2023/07/05 04:58:41;;;;;;;5.05;2.65;;;17.30;78.60;;;;;;5032798;28;20033;-77
2023/07/05 05:01:09;;;;;;;6.13;2.55;;;17.30;78.40;;;;;;5032749;28;20036;-76
2023/07/05 05:03:34;;;;;;;2.92;2.63;;;17.40;77.60;;;;;;5032492;28;20133;-75
2023/07/05 05:06:00;;;;;;;3.88;2.72;;;17.50;77.20;;;;;;5032763;28;20462;-76
2023/07/05 05:08:26;;;;;;;5.03;2.45;;;17.60;76.90;;;;;;5032729;28;20573;-76
2023/07/05 05:10:53;;;;;;;3.97;2.53;;;17.80;77.20;;;;;;5032722;28;20043;-76
2023/07/05 05:13:18;;;;;;;2.90;2.40;;;17.90;77.10;;;;;;5032661;28;20025;-75
2023/07/05 05:15:44;;;;;;;2.95;2.58;;;18.00;75.00;;;;;;5032472;28;20031;-75
2023/07/05 05:18:09;;;;;;;4.43;2.65;;;18.00;73.60;;;;;;5032551;28;20033;-76
2023/07/05 05:20:38;;;;;;;3.03;2.65;;;18.10;73.70;;;;;;5032435;28;20057;-76
2023/07/05 05:23:04;;;;;;;2.72;2.22;;;18.20;74.60;;;;;;5032285;28;20074;-75
2023/07/05 05:25:30;;;;;;;4.35;3.08;;;18.20;73.20;;;;;;5032463;28;20037;-75
2023/07/05 05:27:56;;;;;;;3.45;2.67;;;18.40;73.60;;;;;;5032201;28;20022;-76
2023/07/05 05:30:21;;;;;;;3.60;2.40;;;18.40;73.10;;;;;;5032233;28;20037;-75
2023/07/05 05:32:48;;;;;;;3.90;2.75;;;18.50;71.70;;;;;;5032134;28;20066;-76
2023/07/05 05:35:14;;;;;;;4.13;2.60;;;18.50;71.80;;;;;;5030694;28;20018;-76
2023/07/05 05:37:40;;;;;;;3.35;2.85;;;18.60;72.60;;;;;;5031764;28;20040;-76
2023/07/05 05:40:07;;;;;;;3.78;2.70;;;18.60;72.00;;;;;;5031932;28;20101;-76
2023/07/05 05:42:33;;;;;;;3.28;2.70;;;18.60;72.00;;;;;;5031795;28;20041;-76
2023/07/05 05:44:58;;;;;;;3.58;2.60;;;18.60;71.70;;;;;;5030943;28;20392;-76
2023/07/05 05:47:24;;;;;;;2.95;2.40;;;18.60;71.20;;;;;;5031820;28;20370;-76
2023/07/05 05:49:49;;;;;;;3.03;2.17;;;18.50;71.10;;;;;;5031785;28;20041;-76
2023/07/05 05:52:15;;;;;;;3.72;2.78;;;18.60;70.80;;;;;;5032190;28;20176;-76
2023/07/05 05:54:40;;;;;;;4.57;2.70;;;18.60;71.80;;;;;;5031783;28;20039;-76
2023/07/05 05:57:07;;;;;;;3.03;2.38;;;18.40;71.80;;;;;;5031677;28;20478;-76
2023/07/05 05:59:33;;;;;;;3.45;2.35;;;18.50;73.00;;;;;;5030361;28;20022;-78
2023/07/05 06:01:58;;;;;;;3.40;2.38;;;18.40;72.20;;;;;;5031631;28;20546;-76
2023/07/05 06:04:24;;;;;;;3.88;2.55;;;18.50;73.20;;;;;;5031419;28;20089;-77
2023/07/05 06:06:49;;;;;;;6.78;3.00;;;18.60;71.80;;;;;;5031511;28;20497;-77
2023/07/05 06:09:15;;;;;;;3.28;2.72;;;18.60;71.70;;;;;;5031390;28;20033;-74
2023/07/05 06:11:41;;;;;;;3.35;2.20;;;18.70;72.00;;;;;;5031240;28;20101;-75
2023/07/05 06:14:08;;;;;;;4.75;2.30;;;18.80;71.50;;;;;;5031413;28;20473;-75
2023/07/05 06:16:33;;;;;;;3.97;2.67;;;18.90;70.00;;;;;;5029977;28;20026;-77
2023/07/05 06:18:59;;;;;;;3.53;2.20;;;18.90;70.80;;;;;;5031344;28;20085;-79
2023/07/05 06:21:25;;;;;;;3.10;1.80;;;19.00;70.20;;;;;;5031092;28;20021;-79
2023/07/05 06:23:51;;;;;;;2.63;2.00;;;19.00;70.50;;;;;;5031132;28;20059;-79
2023/07/05 06:26:18;;;;;;;3.60;1.98;;;19.20;69.80;;;;;;5031470;28;20025;-80
2023/07/05 06:28:44;;;;;;;2.97;2.00;;;19.30;69.50;;;;;;5031039;27;20036;-75
2023/07/05 06:31:10;;;;;;;3.08;2.15;;;19.50;68.60;;;;;;5030869;28;20389;-75
2023/07/05 06:33:36;;;;;;;4.65;2.10;;;19.70;67.10;;;;;;5031267;28;20433;-75
2023/07/05 06:36:04;;;;;;;2.35;1.65;;;19.60;66.80;;;;;;5031215;28;20474;-75
2023/07/05 06:38:30;;;;;;;1.80;1.65;;;19.50;67.50;;;;;;5031133;28;20029;-77
2023/07/05 06:40:57;;;;;;;1.95;1.55;;;19.30;67.90;;;;;;5031188;28;20100;-77
2023/07/05 06:43:23;;;;;;;3.03;2.08;;;19.20;67.80;;;;;;5031209;28;20055;-78
2023/07/05 06:45:50;;;;;;;1.95;1.73;;;19.20;68.20;;;;;;5030775;28;20108;-78
2023/07/05 06:48:16;;;;;;;3.33;1.83;;;19.10;68.60;;;;;;5031646;28;20029;-78
2023/07/05 06:50:42;;;;;;;1.60;1.30;;;19.20;69.00;;;;;;5032035;28;20456;-77
2023/07/05 06:53:07;;;;;;;2.67;1.67;;;19.20;69.50;;;;;;5034998;28;20025;-82
2023/07/05 06:55:33;;;;;;;2.35;1.90;;;19.00;68.50;;;;;;5031895;28;20033;-78
2023/07/05 06:57:58;;;;;;;3.00;2.20;;;18.90;70.00;;;;;;5031056;28;20175;-79
2023/07/05 07:00:24;;;;;;;5.07;2.00;;;18.90;70.00;;;;;;5031561;28;20029;-77
2023/07/05 07:02:50;;;;;;;6.13;3.00;;;18.90;70.90;;;;;;5030914;28;20033;-78
2023/07/05 07:05:16;;;;;;;11.20;4.25;;;19.10;69.80;;;;;;5030576;28;20116;-77
2023/07/05 07:07:41;;;;;;;7.88;2.53;;;19.20;70.20;;;;;;5030752;28;20053;-78
2023/07/05 07:10:07;;;;;;;11.85;3.78;;;19.20;72.00;;;;;;5030929;28;20032;-79
2023/07/05 07:12:34;;;;;;;5.40;2.38;;;19.30;70.40;;;;;;5029305;28;20067;-80
2023/07/05 07:15:00;;;;;;;2.85;2.15;;;19.40;70.30;;;;;;5030573;28;20078;-75
2023/07/05 07:17:25;;;;;;;7.65;2.60;;;19.40;72.00;;;;;;5029886;28;20029;-75
2023/07/05 07:19:51;;;;;;;3.97;2.40;;;19.30;72.40;;;;;;5030427;28;20466;-74
2023/07/05 07:22:17;;;;;;;5.60;2.35;;;19.10;73.20;;;;;;5030300;28;20633;-74
2023/07/05 07:24:43;;;;;;;4.22;2.58;;;19.00;73.80;;;;;;5030281;28;20063;-73
2023/07/05 07:27:09;;;;;;;5.35;2.58;;;18.90;74.90;;;;;;5028616;28;20021;-74
2023/07/05 07:29:35;;;;;;;5.40;2.83;;;18.60;77.60;;;;;;5030182;28;20465;-75
2023/07/05 07:32:01;;;;;;;6.13;3.70;;;18.50;77.80;;;;;;5029970;28;20051;-74
2023/07/05 07:34:28;;;;;;;7.53;3.33;;;18.50;79.10;;;;;;5029979;28;20022;-75
2023/07/05 07:36:53;;;;;;;3.90;2.55;;;18.40;79.00;;;;;;5030004;28;20056;-74
2023/07/05 07:39:19;;;;;;;3.40;2.22;;;18.30;80.30;;;;;;5030112;28;20076;-76
2023/07/05 07:41:44;;;;;;;3.03;2.00;;;18.10;80.40;;;;;;5029884;28;20560;-73
2023/07/05 07:44:11;;;;;;;2.83;2.30;;;18.10;82.10;;;;;;5029961;28;20048;-74
2023/07/05 07:46:39;;;;;;;2.25;1.90;;;18.30;82.30;;;;;;5030005;28;20051;-75
2023/07/05 07:49:06;;;;;;;4.10;1.90;;;18.40;80.20;;;;;;5029853;28;20116;-75
2023/07/05 07:51:39;;;;;;;2.80;1.65;;;18.40;78.60;;;;;;5029958;28;20029;-76
2023/07/05 07:54:07;;;;;;;6.15;1.67;;;18.50;79.00;;;;;;5029940;28;20017;-75
2023/07/05 07:56:33;;;;;;;2.97;1.65;;;18.50;76.90;;;;;;5029670;28;20030;-74
2023/07/05 07:58:59;;;;;;;4.43;1.70;;;18.40;78.00;;;;;;5028366;28;20074;-74
2023/07/05 08:01:33;;;;;;;2.85;1.58;;;18.40;77.10;;;;;;5028421;28;20025;-75
2023/07/05 08:04:01;;;;;;;3.28;1.60;;;18.50;78.50;;;;;;5029632;28;20029;-74
2023/07/05 08:06:29;;;;;;;5.03;1.23;;;18.50;77.90;;;;;;5027803;28;20441;-75
2023/07/05 08:08:55;;;;;;;1.13;0.95;;;18.50;76.40;;;;;;5029251;28;20048;-75
2023/07/05 08:11:21;;;;;;;1.58;0.80;;;18.50;75.30;;;;;;5029234;28;20553;-74
2023/07/05 08:13:48;;;;;;;3.53;0.80;;;18.30;75.60;;;;;;5029099;28;20025;-74
2023/07/05 08:16:15;;;;;;;0.88;0.60;;;18.20;75.90;;;;;;5029251;28;20469;-74
2023/07/05 08:18:40;;;;;;;0.93;0.50;;;18.20;76.90;;;;;;5029179;28;20029;-74
2023/07/05 08:21:06;;;;;;;0.95;0.50;;;18.10;77.50;;;;;;5029131;27;20369;-74
2023/07/05 08:23:32;;;;;;;0.60;0.47;;;18.10;76.30;;;;;;5028844;28;20029;-75
2023/07/05 08:26:00;;;;;;;1.85;0.38;;;18.10;76.50;;;;;;5029047;28;20022;-75
2023/07/05 08:28:27;;;;;;;2.13;0.40;;;18.00;75.50;;;;;;5028869;28;20100;-74
2023/07/05 08:30:54;;;;;;;1.05;0.47;;;17.90;75.10;;;;;;5029108;28;20029;-75
2023/07/05 08:33:21;;;;;;;1.08;0.50;;;17.70;74.90;;;;;;5029262;28;20049;-74
2023/07/05 08:35:48;;;;;;;0.45;0.40;;;17.30;76.50;;;;;;5029077;28;20473;-74
2023/07/05 08:38:18;;;;;;;1.60;0.70;;;17.10;77.10;;;;;;5028657;28;20050;-75
2023/07/05 08:40:48;;;;;;;1.88;0.43;;;16.90;79.00;;;;;;5028899;28;20052;-75
2023/07/05 08:43:23;;;;;;;1.55;0.50;;;17.00;77.70;;;;;;5028913;28;20037;-75
2023/07/05 08:46:03;;;;;;;0.95;0.57;;;16.90;79.50;;;;;;5028947;28;20048;-76
2023/07/05 08:48:32;;;;;;;2.33;0.55;;;17.10;78.40;;;;;;5029178;28;20059;-75
2023/07/05 08:50:58;;;;;;;0.47;0.47;;;17.10;77.80;;;;;;5029117;28;20056;-75
2023/07/05 08:53:24;;;;;;;0.88;0.40;;;17.20;77.60;;;;;;5029023;28;20036;-75
2023/07/05 08:56:12;;;;;;;1.08;0.50;;;17.10;78.20;;;;;;5029160;28;20026;-75
2023/07/05 08:58:44;;;;;;;1.48;0.70;;;17.10;78.90;;;;;;5027715;28;20025;-75
2023/07/05 09:01:19;;;;;;;0.50;0.50;;;17.00;79.90;;;;;;5028946;28;20517;-74
2023/07/05 09:03:44;;;;;;;0.68;0.40;;;17.00;80.50;;;;;;5028741;28;20038;-74
2023/07/05 09:06:38;;;;;;;1.45;0.40;;;16.90;79.60;;;;;;5028610;28;20493;-74
2023/07/05 09:09:40;;;;;;;0.55;0.50;;;16.80;81.40;;;;;;5028692;28;20037;-74
2023/07/05 09:12:16;;;;;;;1.45;0.60;;;16.90;82.50;;;;;;5027962;28;20033;-75
2023/07/05 09:14:51;;;;;;;1.08;0.60;;;17.00;80.90;;;;;;5028895;28;20021;-74
2023/07/05 09:17:25;;;;;;;2.03;0.45;;;17.30;80.70;;;;;;5028775;28;20026;-75
2023/07/05 09:19:56;;;;;;;0.52;0.40;;;17.60;80.00;;;;;;5030838;28;20033;-75
2023/07/05 09:22:27;;;;;;;2.30;0.43;;;17.80;81.50;;;;;;5031652;28;20022;-75
2023/07/05 09:24:55;;;;;;;1.55;0.40;;;18.20;79.20;;;;;;5031513;28;20397;-75
2023/07/05 09:27:29;;;;;;;0.82;0.40;;;18.30;79.40;;;;;;5031437;28;20026;-74
2023/07/05 09:30:13;;;;;;;1.35;0.73;;;18.50;77.70;;;;;;5030578;28;20034;-75
2023/07/05 09:32:41;;;;;;;1.05;0.70;;;18.80;73.80;;;;;;5031626;28;20470;-75
2023/07/05 09:35:21;;;;;;;1.13;0.80;;;19.00;74.10;;;;;;5031754;28;20104;-75
2023/07/05 09:38:13;;;;;;;3.28;0.90;;;19.00;75.00;;;;;;5031528;28;20128;-75
2023/07/05 09:40:47;;;;;;;1.17;1.00;;;19.30;74.10;;;;;;5031419;28;20026;-75
2023/07/05 09:43:24;;;;;;;1.17;1.08;;;19.40;72.40;;;;;;5031021;28;20040;-75
2023/07/05 09:45:50;;;;;;;0.85;0.80;;;19.50;73.10;;;;;;5031378;28;20105;-75
2023/07/05 09:48:17;;;;;;;1.45;1.00;;;19.40;71.90;;;;;;5031462;28;20429;-76
2023/07/05 09:50:50;;;;;;;1.63;1.08;;;19.50;72.90;;;;;;5031245;28;20143;-74
2023/07/05 09:53:50;;;;;;;1.80;0.88;;;19.80;72.30;;;;;;5030023;28;20029;-74
2023/07/05 09:56:30;;;;;;;1.83;0.98;;;19.90;72.30;;;;;;5028914;28;20025;-72
2023/07/05 09:59:15;;;;;;;3.58;1.30;;;20.10;70.00;;;;;;5030967;28;20026;-73
2023/07/05 10:01:48;;;;;;;2.13;1.30;;;20.30;68.90;;;;;;5031353;28;20450;-73
2023/07/05 10:04:15;;;;;;;4.35;0.90;;;20.40;69.30;;;;;;5031362;28;20407;-72
2023/07/05 10:06:45;;;;;;;1.80;1.10;;;20.40;68.00;;;;;;5031097;28;20025;-73
2023/07/05 10:09:19;;;;;;;0.90;0.90;;;20.40;67.10;;;;;;5031389;28;20037;-74
2023/07/05 10:11:54;;;;;;;2.15;1.02;;;20.40;67.50;;;;;;5031368;28;20032;-74
2023/07/05 10:14:28;;;;;;;1.10;1.00;;;20.70;67.50;;;;;;5030075;28;20025;-72
2023/07/05 10:17:03;;;;;;;1.55;1.45;;;21.00;64.70;;;;;;5028576;28;20501;-73
2023/07/05 10:19:49;;;;;;;1.43;1.23;;;21.20;64.40;;;;;;5028287;28;20022;-72
2023/07/05 10:22:25;;;;;;;2.30;1.50;;;20.90;62.40;;;;;;5028994;28;20076;-72
2023/07/05 10:24:55;;;;;;;3.13;1.40;;;20.80;64.10;;;;;;5028577;28;20412;-73
2023/07/05 10:27:28;;;;;;;2.25;1.40;;;20.80;61.60;;;;;;5032479;28;20031;-71
2023/07/05 10:30:13;;;;;;;3.97;1.55;;;20.70;62.00;;;;;;5027684;28;20061;-71
2023/07/05 10:32:39;;;;;;;4.65;1.75;;;20.70;62.40;;;;;;5030503;28;20049;-76
2023/07/05 10:35:28;;;;;;;2.40;1.30;;;20.60;62.00;;;;;;5030828;28;20033;-72
2023/07/05 10:37:54;;;;;;;1.65;1.20;;;20.20;61.40;;;;;;5030189;28;20032;-72
2023/07/05 10:40:22;;;;;;;2.25;1.30;;;20.10;61.80;;;;;;5030173;28;20033;-72
2023/07/05 10:42:55;;;;;;;1.98;1.60;;;20.20;64.20;;;;;;5029948;28;20093;-72
2023/07/05 10:45:22;;;;;;;1.58;1.30;;;20.40;63.10;;;;;;5027596;28;20033;-73
2023/07/05 10:47:53;;;;;;;2.63;1.50;;;20.70;62.00;;;;;;5030254;28;20108;-74
2023/07/05 10:50:37;;;;;;;3.08;1.30;;;20.90;61.20;;;;;;5027508;28;20021;-71
2023/07/05 10:53:15;;;;;;;1.80;1.67;;;21.00;59.80;;;;;;5028574;28;20506;-86
2023/07/05 10:56:25;;;;;;;1.50;1.40;;;20.80;60.70;;;;;;5029093;28;20029;-85
2023/07/05 10:58:57;;;;;;;2.88;1.98;;;20.60;60.70;;;;;;5064444;27;20033;-84
2023/07/05 11:01:29;;;;;;;4.28;2.00;;;20.90;59.90;;;;;;5028882;28;20025;-88
2023/07/05 11:04:16;;;;;;;4.00;1.63;;;21.40;58.50;;;;;;5030100;28;20033;-84
2023/07/05 11:06:44;;;;;;;2.25;1.80;;;21.90;57.60;;;;;;5031194;28;20354;-77
2023/07/05 11:09:10;;;;;;;1.70;1.60;;;21.90;57.20;;;;;;5030066;28;20045;-79
2023/07/05 11:11:42;;;;;;;2.50;2.05;;;21.60;55.40;;;;;;5030311;28;20041;-79
2023/07/05 11:14:12;;;;;;;2.40;1.92;;;21.80;54.60;;;;;;5031163;28;20382;-78
2023/07/05 11:16:40;;;;;;;4.20;1.85;;;21.90;54.60;;;;;;5028117;28;20022;-75
2023/07/05 11:19:14;;;;;;;3.30;2.25;;;21.80;56.60;;;;;;5029482;28;20045;-77
2023/07/05 11:21:44;;;;;;;4.00;2.33;;;21.90;56.60;;;;;;5029928;28;20036;-76
2023/07/05 11:24:11;;;;;;;3.58;2.55;;;21.90;52.80;;;;;;5030115;28;20055;-78
2023/07/05 11:26:39;;;;;;;2.60;2.40;;;21.40;53.60;;;;;;5029833;28;20096;-76
2023/07/05 11:29:28;;;;;;;2.40;2.20;;;21.60;53.30;;;;;;5028316;28;20029;-78
2023/07/05 11:31:53;;;;;;;6.03;2.58;;;21.70;53.40;;;;;;5025892;28;20039;-78
2023/07/05 11:34:25;;;;;;;3.30;2.65;;;21.90;53.30;;;;;;5028832;28;20108;-76
2023/07/05 11:36:52;;;;;;;4.78;2.63;;;22.00;52.30;;;;;;5027476;28;20124;-75
2023/07/05 11:39:35;;;;;;;4.93;2.42;;;22.40;51.90;;;;;;5028379;28;20030;-74
2023/07/05 11:42:15;;;;;;;3.53;2.92;;;22.60;49.40;;;;;;5027530;28;20136;-79
2023/07/05 11:44:46;;;;;;;3.38;2.70;;;22.40;49.30;;;;;;5028951;28;20493;-77
2023/07/05 11:47:32;;;;;;;3.75;2.95;;;22.60;45.00;;;;;;5030082;28;20082;-76
2023/07/05 11:50:01;;;;;;;4.03;2.58;;;21.90;46.70;;;;;;5036514;27;20048;-77
2023/07/05 11:52:33;;;;;;;4.22;2.78;;;21.70;48.40;;;;;;5029955;28;20022;-75
2023/07/05 11:55:13;;;;;;;2.90;2.60;;;21.90;48.50;;;;;;5029945;28;20485;-77
2023/07/05 11:57:49;;;;;;;3.05;2.75;;;22.50;48.90;;;;;;5033633;28;20022;-75
2023/07/05 12:00:30;;;;;;;3.55;2.58;;;22.50;43.30;;;;;;5030742;28;20032;-76
2023/07/05 12:03:15;;;;;;;3.20;2.90;;;22.50;41.50;;;;;;5030446;28;20025;-76
2023/07/05 12:05:41;;;;;;;4.65;3.22;;;22.50;42.30;;;;;;5031479;28;20205;-85
2023/07/05 12:08:19;;;;;;;3.95;2.85;;;22.30;43.00;;;;;;5033507;28;20061;-83
2023/07/05 12:11:04;;;;;;;6.50;3.35;;;22.20;40.90;;;;;;5037788;28;20030;-85
2023/07/05 12:13:32;;;;;;;5.43;3.17;;;22.00;40.70;;;;;;5035415;28;20044;-86
2023/07/05 12:15:58;;;;;;;4.25;3.30;;;22.10;40.60;;;;;;5030594;28;20424;-85
2023/07/05 12:18:27;;;;;;;4.75;3.30;;;22.30;39.90;;;;;;5042131;28;20029;-90
2023/07/05 12:20:54;;;;;;;3.83;2.97;;;22.50;39.40;;;;;;5042357;28;20048;-89
2023/07/05 12:23:23;;;;;;;5.82;4.03;;;22.50;39.60;;;;;;5046871;28;20033;-90
2023/07/05 12:26:03;;;;;;;3.85;3.28;;;22.70;39.30;;;;;;5043014;28;20030;-87
2023/07/05 12:28:32;;;;;;;4.25;3.58;;;22.90;38.80;;;;;;5037380;28;20025;-87
2023/07/05 12:31:09;;;;;;;5.25;3.08;;;23.20;40.50;;;;;;5036913;28;20028;-93
2023/07/05 12:33:36;;;;;;;4.30;3.63;;;23.50;37.80;;;;;;5036825;28;20582;-93
2023/07/05 12:36:09;;;;;;;3.83;3.20;;;23.70;40.60;;;;;;5033399;28;20026;-91
2023/07/05 12:38:36;;;;;;;5.07;3.40;;;23.50;39.10;;;;;;5030199;28;20086;-87
2023/07/05 12:41:03;;;;;;;5.70;3.40;;;23.50;38.00;;;;;;5028839;28;20025;-81
2023/07/05 12:43:29;;;;;;;4.55;3.58;;;23.30;38.80;;;;;;5029704;28;20038;-81
2023/07/05 12:46:29;;;;;;;5.47;3.40;;;23.00;40.00;;;;;;5029120;28;20022;-79
2023/07/05 12:48:55;;;;;;;4.43;3.90;;;23.00;40.00;;;;;;5051798;28;20087;-80
2023/07/05 12:51:26;;;;;;;4.22;3.50;;;23.30;39.40;;;;;;5034112;28;20467;-80
2023/07/05 12:53:58;;;;;;;11.52;4.28;;;23.60;39.80;;;;;;5037899;28;20496;-81
2023/07/05 12:56:36;;;;;;;4.75;3.80;;;24.00;37.60;;;;;;5033156;28;20033;-82
2023/07/05 12:59:15;;;;;;;5.82;4.05;;;24.20;37.60;;;;;;5034844;28;20028;-80
2023/07/05 13:01:41;;;;;;;4.43;3.97;;;24.20;34.50;;;;;;5033466;28;20063;-81
2023/07/05 13:04:17;;;;;;;6.68;4.35;;;24.10;35.70;;;;;;5033017;28;20041;-82